createdAt,value
2022-11-29T00:01:18.784Z,4.00
2022-11-29T00:03:45.720Z,4.00
2022-11-29T00:06:13.628Z,4.00
2022-11-29T00:08:41.552Z,4.00
2022-11-29T00:11:09.344Z,4.00
2022-11-29T00:13:36.253Z,4.00
2022-11-29T00:16:06.794Z,3.90
2022-11-29T00:18:33.866Z,3.90
2022-11-29T00:21:00.828Z,3.90
2022-11-29T00:23:27.833Z,3.90
2022-11-29T00:25:54.783Z,3.90
2022-11-29T00:28:21.825Z,3.90
2022-11-29T00:30:48.793Z,3.90
2022-11-29T00:33:15.763Z,3.90
2022-11-29T00:35:42.764Z,3.90
2022-11-29T00:38:09.675Z,3.90
2022-11-29T00:40:36.828Z,3.90
2022-11-29T00:43:03.728Z,4.00
2022-11-29T00:45:30.752Z,3.90
2022-11-29T00:47:57.801Z,3.90
2022-11-29T00:50:24.794Z,4.00
2022-11-29T00:52:51.919Z,4.00
2022-11-29T00:55:19.048Z,4.00
2022-11-29T00:57:46.100Z,4.00
2022-11-29T01:00:13.259Z,4.00
2022-11-29T01:02:40.234Z,4.00
2022-11-29T01:05:07.388Z,4.10
2022-11-29T01:07:34.717Z,4.00
2022-11-29T01:10:01.649Z,4.10
2022-11-29T01:12:28.741Z,4.10
2022-11-29T01:14:55.740Z,4.10
2022-11-29T01:17:22.730Z,4.10
2022-11-29T01:19:51.148Z,4.10
2022-11-29T01:22:18.641Z,4.10
2022-11-29T01:24:45.845Z,4.10
2022-11-29T01:27:12.834Z,4.10
2022-11-29T01:29:39.768Z,4.10
2022-11-29T01:32:06.717Z,4.10
2022-11-29T01:34:33.669Z,4.10
2022-11-29T01:37:00.540Z,4.10
2022-11-29T01:39:27.509Z,4.10
2022-11-29T01:41:55.114Z,4.00
2022-11-29T01:44:22.065Z,4.10
2022-11-29T01:46:49.104Z,4.10
2022-11-29T01:49:35.147Z,4.10
2022-11-29T01:52:05.832Z,4.10
2022-11-29T01:54:33.925Z,4.10
2022-11-29T01:57:00.868Z,4.10
2022-11-29T01:59:28.411Z,4.10
2022-11-29T02:01:59.996Z,4.10
2022-11-29T02:04:26.970Z,4.20
2022-11-29T02:06:53.936Z,4.20
2022-11-29T02:09:21.927Z,4.20
2022-11-29T02:11:52.556Z,4.10
2022-11-29T02:14:25.360Z,4.10
2022-11-29T02:16:59.558Z,4.10
2022-11-29T02:19:32.156Z,4.20
2022-11-29T02:22:03.405Z,4.10
2022-11-29T02:24:30.333Z,4.10
2022-11-29T02:27:02.929Z,4.10
2022-11-29T02:29:32.029Z,4.20
2022-11-29T02:31:59.034Z,4.20
2022-11-29T02:34:58.787Z,4.20
2022-11-29T02:37:41.681Z,4.20
2022-11-29T02:40:26.839Z,4.30
2022-11-29T02:43:05.906Z,4.30
2022-11-29T02:45:41.945Z,4.30
2022-11-29T02:48:27.563Z,4.30
2022-11-29T02:51:11.577Z,4.30
2022-11-29T02:53:41.135Z,4.30
2022-11-29T02:56:10.974Z,4.20
2022-11-29T02:58:40.211Z,4.20
2022-11-29T03:01:22.325Z,4.20
2022-11-29T03:03:59.633Z,4.20
2022-11-29T03:06:55.933Z,4.20
2022-11-29T03:09:29.116Z,4.20
2022-11-29T03:11:58.717Z,4.20
2022-11-29T03:14:30.122Z,4.20
2022-11-29T03:17:03.958Z,4.20
2022-11-29T03:19:40.044Z,4.20
2022-11-29T03:22:06.979Z,4.20
2022-11-29T03:24:47.032Z,4.30
2022-11-29T03:27:16.746Z,4.30
2022-11-29T03:30:00.748Z,4.30
2022-11-29T03:32:33.728Z,4.30
2022-11-29T03:35:12.978Z,4.30
2022-11-29T03:37:48.664Z,4.20
2022-11-29T03:40:19.704Z,4.30
2022-11-29T03:43:01.963Z,4.30
2022-11-29T03:45:36.632Z,4.30
2022-11-29T03:48:15.156Z,4.30
2022-11-29T03:50:43.529Z,4.30
2022-11-29T03:53:29.036Z,4.30
2022-11-29T03:55:59.585Z,4.30
2022-11-29T03:58:35.452Z,4.40
2022-11-29T04:01:21.486Z,4.40
2022-11-29T04:03:57.427Z,4.40
2022-11-29T04:06:30.586Z,4.40
2022-11-29T04:09:16.328Z,4.40
2022-11-29T04:11:55.001Z,4.40
2022-11-29T04:14:24.964Z,4.40
2022-11-29T04:17:04.194Z,4.40
2022-11-29T04:19:49.992Z,4.40
2022-11-29T04:22:19.952Z,4.40
2022-11-29T04:24:54.567Z,4.40
2022-11-29T04:27:30.334Z,4.40
2022-11-29T04:30:12.691Z,4.40
2022-11-29T04:32:42.395Z,4.30
2022-11-29T04:35:09.453Z,4.40
2022-11-29T04:37:55.024Z,4.40
2022-11-29T04:40:40.740Z,4.40
2022-11-29T04:43:13.823Z,4.40
2022-11-29T04:45:49.867Z,4.40
2022-11-29T04:48:21.902Z,4.40
2022-11-29T04:51:07.304Z,4.40
2022-11-29T04:53:40.396Z,4.40
2022-11-29T04:56:07.486Z,4.40
2022-11-29T04:58:52.961Z,4.40
2022-11-29T05:01:20.445Z,4.40
2022-11-29T05:03:55.390Z,4.40
2022-11-29T05:06:30.173Z,4.40
2022-11-29T05:09:07.024Z,4.40
2022-11-29T05:11:52.501Z,4.40
2022-11-29T05:14:19.446Z,4.40
2022-11-29T05:16:49.532Z,4.40
2022-11-29T05:19:25.325Z,4.40
2022-11-29T05:21:55.058Z,4.40
2022-11-29T05:24:31.188Z,4.40
2022-11-29T05:27:17.089Z,4.50
2022-11-29T05:29:54.445Z,4.50
2022-11-29T05:32:39.623Z,4.50
2022-11-29T05:35:25.036Z,4.50
2022-11-29T05:37:52.990Z,4.50
2022-11-29T05:40:38.722Z,4.50
2022-11-29T05:43:05.675Z,4.50
2022-11-29T05:46:04.967Z,4.50
2022-11-29T05:48:34.926Z,4.50
2022-11-29T05:51:11.022Z,4.50
2022-11-29T05:53:46.789Z,4.50
2022-11-29T05:56:22.871Z,4.50
2022-11-29T05:58:51.194Z,4.50
2022-11-29T06:01:21.008Z,4.50
2022-11-29T06:03:58.717Z,4.50
2022-11-29T06:06:34.759Z,4.50
2022-11-29T06:09:05.962Z,4.60
2022-11-29T06:11:35.939Z,4.60
2022-11-29T06:14:09.707Z,4.60
2022-11-29T06:16:42.714Z,4.60
2022-11-29T06:19:30.251Z,4.70
2022-11-29T06:22:20.890Z,4.70
2022-11-29T06:24:56.610Z,4.70
2022-11-29T06:27:29.587Z,4.70
2022-11-29T06:30:06.942Z,4.70
2022-11-29T06:32:44.118Z,4.70
2022-11-29T06:35:20.117Z,4.80
2022-11-29T06:37:49.070Z,4.80
2022-11-29T06:40:16.209Z,4.70
2022-11-29T06:42:43.211Z,4.80
2022-11-29T06:45:13.845Z,4.80
2022-11-29T06:47:50.956Z,4.80
2022-11-29T06:50:23.958Z,4.80
2022-11-29T06:53:06.350Z,4.80
2022-11-29T06:55:33.265Z,4.80
2022-11-29T06:58:06.041Z,4.80
2022-11-29T07:00:37.606Z,4.80
2022-11-29T07:03:23.243Z,4.80
2022-11-29T07:05:50.516Z,4.80
2022-11-29T07:08:19.031Z,4.80
2022-11-29T07:10:46.411Z,4.80
2022-11-29T07:13:13.783Z,4.80
2022-11-29T07:15:41.700Z,4.90
2022-11-29T07:18:18.809Z,4.90
2022-11-29T07:20:54.746Z,4.90
2022-11-29T07:23:40.342Z,5.00
2022-11-29T07:26:16.168Z,5.00
2022-11-29T07:29:03.576Z,5.10
2022-11-29T07:31:33.767Z,5.10
2022-11-29T07:34:10.083Z,5.20
2022-11-29T07:36:42.272Z,5.20
2022-11-29T07:39:16.577Z,5.20
2022-11-29T07:41:52.648Z,5.20
2022-11-29T07:44:32.320Z,5.20
2022-11-29T07:46:59.323Z,5.20
2022-11-29T07:49:26.338Z,5.20
2022-11-29T07:51:54.462Z,5.20
2022-11-29T07:54:22.213Z,5.20
2022-11-29T07:56:49.259Z,5.30
2022-11-29T07:59:16.407Z,5.30
2022-11-29T08:01:43.407Z,5.30
2022-11-29T08:04:10.421Z,5.30
2022-11-29T08:06:37.448Z,5.40
2022-11-29T08:09:04.420Z,5.40
2022-11-29T08:11:31.466Z,5.50
2022-11-29T08:13:58.984Z,5.50
2022-11-29T08:16:26.261Z,5.50
2022-11-29T08:18:53.237Z,5.50
2022-11-29T08:21:20.289Z,5.50
2022-11-29T08:23:50.485Z,5.50
2022-11-29T08:26:17.932Z,5.60
2022-11-29T08:28:44.892Z,5.60
2022-11-29T08:31:12.121Z,5.60
2022-11-29T08:33:39.636Z,5.60
2022-11-29T08:36:10.631Z,5.60
2022-11-29T08:38:37.555Z,5.70
2022-11-29T08:41:04.932Z,5.70
2022-11-29T08:43:31.975Z,5.70
2022-11-29T08:45:59.069Z,5.80
2022-11-29T08:48:26.198Z,5.80
2022-11-29T08:50:53.374Z,5.90
2022-11-29T08:53:38.827Z,5.90
2022-11-29T08:56:31.897Z,6.00
2022-11-29T08:58:52.832Z,6.00
2022-11-29T09:01:19.780Z,6.10
2022-11-29T09:04:07.145Z,6.10
2022-11-29T09:06:37.262Z,6.20
2022-11-29T09:09:04.323Z,6.20
2022-11-29T09:11:31.460Z,6.20
2022-11-29T09:13:59.562Z,6.30
2022-11-29T09:16:27.600Z,6.30
2022-11-29T09:18:55.930Z,6.30
2022-11-29T09:21:26.099Z,6.40
2022-11-29T09:23:58.734Z,6.40
2022-11-29T09:26:27.427Z,6.50
2022-11-29T09:28:54.519Z,6.50
2022-11-29T09:31:21.631Z,6.60
2022-11-29T09:33:48.923Z,6.60
2022-11-29T09:36:16.135Z,6.60
2022-11-29T09:38:43.013Z,6.70
2022-11-29T09:41:12.874Z,6.70
2022-11-29T09:43:39.929Z,6.70
2022-11-29T09:46:16.195Z,6.70
2022-11-29T09:48:51.479Z,6.80
2022-11-29T09:51:24.364Z,6.80
2022-11-29T09:53:58.605Z,6.80
2022-11-29T09:56:34.946Z,6.90
2022-11-29T09:59:04.813Z,6.90
2022-11-29T10:01:32.853Z,6.90
2022-11-29T10:04:04.001Z,7.00
2022-11-29T10:06:40.710Z,7.00
2022-11-29T10:09:29.566Z,7.00
2022-11-29T10:12:02.418Z,7.00
2022-11-29T10:14:49.648Z,7.00
2022-11-29T10:17:16.627Z,7.10
2022-11-29T10:19:44.944Z,7.10
2022-11-29T10:22:17.786Z,7.20
2022-11-29T10:24:47.766Z,7.30
2022-11-29T10:27:23.191Z,7.30
2022-11-29T10:29:51.465Z,7.30
2022-11-29T10:32:20.256Z,7.30
2022-11-29T10:34:50.279Z,7.30
2022-11-29T10:37:20.597Z,7.40
2022-11-29T10:39:53.646Z,7.40
2022-11-29T10:42:40.087Z,7.40
2022-11-29T10:45:13.788Z,7.40
2022-11-29T10:47:40.843Z,7.40
2022-11-29T10:50:08.126Z,7.50
2022-11-29T10:52:35.753Z,7.50
2022-11-29T10:55:02.705Z,7.50
2022-11-29T10:57:29.809Z,7.50
2022-11-29T10:59:59.866Z,7.50
2022-11-29T11:02:27.948Z,7.50
2022-11-29T11:04:54.987Z,7.50
2022-11-29T11:07:28.564Z,7.50
2022-11-29T11:09:56.719Z,7.60
2022-11-29T11:12:27.710Z,7.60
2022-11-29T11:15:15.586Z,7.60
2022-11-29T11:17:54.528Z,7.70
2022-11-29T11:20:22.840Z,7.80
2022-11-29T11:22:56.954Z,7.80
2022-11-29T11:25:44.179Z,7.80
2022-11-29T11:28:21.347Z,7.90
2022-11-29T11:31:01.703Z,8.00
2022-11-29T11:33:32.865Z,8.00
2022-11-29T11:36:06.006Z,7.90
2022-11-29T11:38:37.314Z,7.90
2022-11-29T11:41:05.538Z,8.00
2022-11-29T11:43:32.483Z,7.90
2022-11-29T11:45:59.479Z,8.00
2022-11-29T11:48:26.441Z,8.00
2022-11-29T11:50:54.290Z,8.00
2022-11-29T11:53:36.409Z,8.00
2022-11-29T11:56:07.076Z,8.00
2022-11-29T11:58:45.741Z,8.10
2022-11-29T12:01:12.680Z,8.10
2022-11-29T12:03:48.646Z,8.10
2022-11-29T12:06:18.410Z,8.10
2022-11-29T12:08:45.761Z,8.10
2022-11-29T12:11:13.356Z,8.00
2022-11-29T12:13:41.471Z,8.10
2022-11-29T12:16:10.495Z,8.10
2022-11-29T12:18:39.678Z,8.00
2022-11-29T12:21:11.703Z,8.00
2022-11-29T12:23:57.423Z,8.00
2022-11-29T12:26:55.850Z,8.00
2022-11-29T12:29:17.192Z,7.90
2022-11-29T12:31:50.070Z,7.90
2022-11-29T12:34:35.699Z,7.90
2022-11-29T12:37:21.583Z,7.90
2022-11-29T12:39:52.615Z,7.90
2022-11-29T12:42:36.232Z,7.90
2022-11-29T12:45:21.615Z,8.00
2022-11-29T12:47:54.754Z,8.00
2022-11-29T12:50:40.535Z,8.00
2022-11-29T12:53:14.601Z,8.10
2022-11-29T12:55:53.368Z,8.10
2022-11-29T12:58:23.993Z,8.10
2022-11-29T13:00:59.124Z,8.10
2022-11-29T13:03:52.289Z,8.10
2022-11-29T13:06:32.098Z,8.10
2022-11-29T13:08:59.038Z,8.00
2022-11-29T13:11:27.826Z,8.00
2022-11-29T13:14:13.719Z,8.00
2022-11-29T13:16:53.754Z,8.00
2022-11-29T13:19:25.262Z,8.00
2022-11-29T13:22:01.387Z,8.00
2022-11-29T13:24:43.192Z,7.90
2022-11-29T13:27:13.974Z,8.00
2022-11-29T13:29:42.909Z,8.00
2022-11-29T13:32:25.578Z,8.00
2022-11-29T13:34:52.520Z,8.00
2022-11-29T13:37:31.434Z,8.00
2022-11-29T13:39:58.441Z,8.00
2022-11-29T13:42:31.582Z,8.00
2022-11-29T13:44:58.576Z,8.00
2022-11-29T13:47:25.549Z,8.00
2022-11-29T13:50:02.786Z,8.00
2022-11-29T13:52:32.619Z,8.00
2022-11-29T13:55:05.714Z,7.90
2022-11-29T13:58:15.089Z,7.90
2022-11-29T14:00:44.044Z,7.90
2022-11-29T14:03:19.951Z,7.90
2022-11-29T14:05:47.051Z,7.90
2022-11-29T14:08:23.726Z,7.90
2022-11-29T14:10:50.644Z,7.90
2022-11-29T14:13:17.610Z,7.80
2022-11-29T14:15:44.713Z,7.80
2022-11-29T14:18:30.446Z,7.80
2022-11-29T14:20:57.517Z,7.80
2022-11-29T14:23:34.761Z,7.80
2022-11-29T14:26:01.668Z,7.70
2022-11-29T14:28:34.414Z,7.70
2022-11-29T14:31:04.931Z,7.70
2022-11-29T14:33:43.206Z,7.70
2022-11-29T14:36:19.176Z,7.60
2022-11-29T14:39:04.595Z,7.60
2022-11-29T14:41:49.887Z,7.50
2022-11-29T14:44:18.390Z,7.50
2022-11-29T14:46:45.492Z,7.40
2022-11-29T14:49:22.787Z,7.40
2022-11-29T14:52:08.689Z,7.40
2022-11-29T14:54:36.036Z,7.30
2022-11-29T14:57:23.202Z,7.30
2022-11-29T14:59:53.265Z,7.30
2022-11-29T15:02:20.524Z,7.30
2022-11-29T15:04:48.244Z,7.20
2022-11-29T15:07:18.873Z,7.20
2022-11-29T15:09:46.782Z,7.20
2022-11-29T15:12:21.720Z,7.10
2022-11-29T15:15:07.193Z,7.10
2022-11-29T15:17:46.330Z,7.10
2022-11-29T15:20:32.528Z,7.10
2022-11-29T15:23:01.054Z,7.10
2022-11-29T15:25:31.043Z,7.10
2022-11-29T15:28:01.713Z,7.10
2022-11-29T15:30:39.093Z,7.10
2022-11-29T15:33:15.938Z,7.10
2022-11-29T15:35:42.874Z,7.10
2022-11-29T15:38:12.035Z,7.10
2022-11-29T15:40:40.973Z,7.00
2022-11-29T15:43:17.836Z,7.00
2022-11-29T15:45:48.521Z,7.10
2022-11-29T15:48:15.459Z,7.00
2022-11-29T15:50:44.729Z,7.00
2022-11-29T15:53:13.877Z,7.00
2022-11-29T15:55:40.771Z,7.00
2022-11-29T15:58:09.451Z,7.00
2022-11-29T16:00:36.438Z,7.00
2022-11-29T16:03:04.398Z,7.00
2022-11-29T16:05:32.128Z,7.00
2022-11-29T16:08:01.704Z,6.90
2022-11-29T16:10:35.890Z,6.90
2022-11-29T16:13:21.430Z,6.90
2022-11-29T16:15:48.378Z,6.90
2022-11-29T16:18:16.563Z,6.90
2022-11-29T16:20:45.541Z,6.80
2022-11-29T16:23:15.664Z,6.80
2022-11-29T16:26:02.117Z,6.90
2022-11-29T16:28:31.292Z,6.80
2022-11-29T16:30:59.974Z,6.80
2022-11-29T16:33:27.004Z,6.80
2022-11-29T16:36:03.983Z,6.80
2022-11-29T16:38:30.928Z,6.70
2022-11-29T16:41:05.371Z,6.70
2022-11-29T16:43:44.277Z,6.70
2022-11-29T16:46:20.253Z,6.70
2022-11-29T16:48:47.748Z,6.70
2022-11-29T16:51:32.887Z,6.70
2022-11-29T16:54:18.343Z,6.70
2022-11-29T16:56:45.375Z,6.60
2022-11-29T16:59:25.666Z,6.60
2022-11-29T17:01:55.056Z,6.60
2022-11-29T17:04:23.231Z,6.60
2022-11-29T17:06:52.834Z,6.60
2022-11-29T17:09:23.899Z,6.50
2022-11-29T17:11:50.858Z,6.50
2022-11-29T17:14:17.849Z,6.50
2022-11-29T17:16:44.986Z,6.60
2022-11-29T17:19:12.433Z,6.50
2022-11-29T17:21:39.631Z,6.50
2022-11-29T17:24:06.718Z,6.50
2022-11-29T17:26:33.686Z,6.60
2022-11-29T17:29:00.580Z,6.50
2022-11-29T17:31:27.747Z,6.50
2022-11-29T17:33:54.864Z,6.50
2022-11-29T17:36:21.848Z,6.50
2022-11-29T17:38:48.815Z,6.50
2022-11-29T17:41:17.031Z,6.50
2022-11-29T17:43:44.001Z,6.50
2022-11-29T17:46:14.557Z,6.40
2022-11-29T17:48:41.619Z,6.50
2022-11-29T17:51:28.768Z,6.50
2022-11-29T17:53:55.941Z,6.50
2022-11-29T17:56:23.692Z,6.50
2022-11-29T17:58:51.300Z,6.50
2022-11-29T18:01:19.152Z,6.50
2022-11-29T18:03:46.177Z,6.50
2022-11-29T18:06:14.442Z,6.50
2022-11-29T18:08:42.301Z,6.50
2022-11-29T18:11:13.100Z,6.50
2022-11-29T18:13:40.123Z,6.50
2022-11-29T18:16:07.981Z,6.50
2022-11-29T18:18:35.114Z,6.50
2022-11-29T18:21:02.446Z,6.50
2022-11-29T18:23:29.560Z,6.50
2022-11-29T18:25:57.533Z,6.50
2022-11-29T18:28:24.838Z,6.40
2022-11-29T18:30:51.836Z,6.40
2022-11-29T18:33:18.785Z,6.40
2022-11-29T18:35:46.547Z,6.40
2022-11-29T18:38:15.570Z,6.40
2022-11-29T18:40:45.096Z,6.40
2022-11-29T18:43:12.873Z,6.40
2022-11-29T18:45:39.868Z,6.40
2022-11-29T18:48:06.865Z,6.40
2022-11-29T18:50:33.883Z,6.40
2022-11-29T18:53:00.737Z,6.30
2022-11-29T18:55:27.793Z,6.40
2022-11-29T18:57:55.062Z,6.40
2022-11-29T19:00:22.032Z,6.40
2022-11-29T19:02:49.083Z,6.30
2022-11-29T19:05:16.094Z,6.30
2022-11-29T19:07:43.009Z,6.30
2022-11-29T19:10:10.235Z,6.30
2022-11-29T19:12:37.138Z,6.30
2022-11-29T19:15:04.197Z,6.30
2022-11-29T19:17:31.140Z,6.30
2022-11-29T19:19:58.287Z,6.30
2022-11-29T19:22:25.172Z,6.30
2022-11-29T19:24:52.082Z,6.30
2022-11-29T19:27:21.300Z,6.30
2022-11-29T19:29:49.913Z,6.20
2022-11-29T19:32:16.958Z,6.20
2022-11-29T19:34:43.898Z,6.20
2022-11-29T19:37:10.890Z,6.20
2022-11-29T19:39:38.966Z,6.20
2022-11-29T19:42:06.007Z,6.20
2022-11-29T19:44:48.252Z,6.20
2022-11-29T19:47:19.865Z,6.20
2022-11-29T19:49:47.099Z,6.20
2022-11-29T19:52:14.086Z,6.10
2022-11-29T19:54:41.011Z,6.10
2022-11-29T19:57:08.060Z,6.10
2022-11-29T19:59:37.210Z,6.10
2022-11-29T20:02:04.189Z,6.10
2022-11-29T20:04:31.248Z,6.10
2022-11-29T20:06:58.208Z,6.10
2022-11-29T20:09:27.722Z,6.10
2022-11-29T20:11:54.734Z,6.10
2022-11-29T20:14:21.705Z,6.10
2022-11-29T20:16:48.701Z,6.10
2022-11-29T20:19:15.948Z,6.10
2022-11-29T20:21:46.549Z,6.10
2022-11-29T20:24:14.500Z,6.10
2022-11-29T20:26:42.467Z,6.10
2022-11-29T20:29:09.462Z,6.10
2022-11-29T20:31:36.734Z,6.10
2022-11-29T20:34:04.991Z,6.10
2022-11-29T20:36:47.193Z,6.10
2022-11-29T20:39:14.091Z,6.00
2022-11-29T20:41:40.992Z,6.00
2022-11-29T20:44:07.999Z,6.00
2022-11-29T20:46:35.039Z,6.00
2022-11-29T20:49:06.563Z,6.00
2022-11-29T20:51:41.263Z,6.00
2022-11-29T20:54:09.743Z,5.90
2022-11-29T20:56:36.661Z,5.90
2022-11-29T20:59:03.585Z,5.90
2022-11-29T21:01:30.477Z,5.80
2022-11-29T21:03:57.516Z,5.80
2022-11-29T21:06:24.521Z,5.80
2022-11-29T21:08:51.383Z,5.80
2022-11-29T21:11:18.514Z,5.80
2022-11-29T21:13:45.718Z,5.80
2022-11-29T21:16:13.096Z,5.70
2022-11-29T21:18:41.107Z,5.70
2022-11-29T21:21:19.963Z,5.70
2022-11-29T21:23:55.995Z,5.70
2022-11-29T21:26:24.820Z,5.70
2022-11-29T21:29:00.007Z,5.60
2022-11-29T21:31:27.084Z,5.60
2022-11-29T21:33:54.221Z,5.50
2022-11-29T21:36:21.473Z,5.50
2022-11-29T21:38:53.911Z,5.50
2022-11-29T21:41:21.905Z,5.50
2022-11-29T21:44:06.071Z,5.40
2022-11-29T21:46:34.041Z,5.40
2022-11-29T21:49:01.088Z,5.40
2022-11-29T21:51:28.023Z,5.40
2022-11-29T21:53:54.943Z,5.40
2022-11-29T21:56:21.882Z,5.40
2022-11-29T21:58:48.892Z,5.30
2022-11-29T22:01:16.487Z,5.30
2022-11-29T22:03:43.565Z,5.30
2022-11-29T22:06:11.860Z,5.20
2022-11-29T22:08:39.294Z,5.20
2022-11-29T22:11:07.058Z,5.20
2022-11-29T22:13:34.292Z,5.20
2022-11-29T22:16:07.861Z,5.20
2022-11-29T22:18:34.926Z,5.20
2022-11-29T22:21:05.216Z,5.10
2022-11-29T22:23:32.259Z,5.10
2022-11-29T22:26:03.515Z,5.10
2022-11-29T22:28:30.455Z,5.10
2022-11-29T22:31:04.116Z,5.00
2022-11-29T22:33:31.303Z,5.10
2022-11-29T22:36:18.508Z,5.00
2022-11-29T22:38:45.430Z,5.00
2022-11-29T22:41:12.780Z,4.90
2022-11-29T22:43:39.866Z,4.90
2022-11-29T22:46:12.924Z,4.80
2022-11-29T22:48:40.087Z,4.80
2022-11-29T22:51:07.028Z,4.80
2022-11-29T22:53:34.501Z,4.70
2022-11-29T22:56:01.538Z,4.70
2022-11-29T22:58:28.609Z,4.70
2022-11-29T23:01:09.521Z,4.70
2022-11-29T23:03:36.970Z,4.70
2022-11-29T23:06:04.884Z,4.70
2022-11-29T23:08:31.837Z,4.70
2022-11-29T23:10:58.987Z,4.70
2022-11-29T23:13:26.036Z,4.70
2022-11-29T23:15:52.913Z,4.70
2022-11-29T23:18:19.922Z,4.60
2022-11-29T23:20:46.802Z,4.70
2022-11-29T23:23:13.818Z,4.70
2022-11-29T23:25:47.437Z,4.60
2022-11-29T23:28:14.417Z,4.60
2022-11-29T23:30:41.311Z,4.60
2022-11-29T23:33:08.260Z,4.60
2022-11-29T23:35:35.197Z,4.50
2022-11-29T23:38:02.144Z,4.50
2022-11-29T23:40:29.042Z,4.50
2022-11-29T23:42:55.996Z,4.50
2022-11-29T23:45:22.926Z,4.50
2022-11-29T23:47:49.823Z,4.60
2022-11-29T23:50:16.880Z,4.60
2022-11-29T23:52:43.788Z,4.60
2022-11-29T23:55:14.574Z,4.60
2022-11-29T23:57:41.559Z,4.60
